createdAt,value
2018-02-18T00:00:28.650Z,1012.79
2018-02-18T00:01:28.655Z,1012.78
2018-02-18T00:02:28.649Z,1012.72
2018-02-18T00:03:28.613Z,1012.76
2018-02-18T00:04:28.600Z,1012.75
2018-02-18T00:05:28.600Z,1012.76
2018-02-18T00:06:28.580Z,1012.80
2018-02-18T00:07:28.572Z,1012.82
2018-02-18T00:08:28.562Z,1012.82
2018-02-18T00:09:28.552Z,1012.84
2018-02-18T00:10:28.549Z,1012.82
2018-02-18T00:11:28.533Z,1012.80
2018-02-18T00:12:28.527Z,1012.80
2018-02-18T00:13:28.518Z,1012.83
2018-02-18T00:14:28.507Z,1012.88
2018-02-18T00:15:28.496Z,1012.88
2018-02-18T00:16:28.480Z,1012.89
2018-02-18T00:17:28.476Z,1012.93
2018-02-18T00:18:28.461Z,1012.90
2018-02-18T00:19:28.460Z,1012.90
2018-02-18T00:20:28.438Z,1012.92
2018-02-18T00:21:28.442Z,1012.95
2018-02-18T00:22:28.418Z,1012.95
2018-02-18T00:23:28.413Z,1012.93
2018-02-18T00:24:28.402Z,1012.96
2018-02-18T00:25:28.386Z,1012.94
2018-02-18T00:26:28.383Z,1012.98
2018-02-18T00:27:28.373Z,1012.97
2018-02-18T00:28:28.353Z,1012.97
2018-02-18T00:29:28.360Z,1013.00
2018-02-18T00:30:28.345Z,1012.99
2018-02-18T00:31:28.329Z,1013.04
2018-02-18T00:32:28.342Z,1013.07
2018-02-18T00:33:28.306Z,1013.06
2018-02-18T00:34:28.293Z,1013.04
2018-02-18T00:35:28.290Z,1013.03
2018-02-18T00:36:28.294Z,1013.04
2018-02-18T00:37:28.263Z,1013.05
2018-02-18T00:38:28.250Z,1013.04
2018-02-18T00:39:28.240Z,1013.05
2018-02-18T00:40:28.233Z,1013.05
2018-02-18T00:41:28.219Z,1013.06
2018-02-18T00:42:28.234Z,1013.04
2018-02-18T00:43:28.229Z,1013.05
2018-02-18T00:44:28.198Z,1013.06
2018-02-18T00:45:28.200Z,1013.06
2018-02-18T00:46:28.200Z,1013.07
2018-02-18T00:47:28.154Z,1013.06
2018-02-18T00:48:28.167Z,1013.08
2018-02-18T00:49:28.157Z,1013.06
2018-02-18T00:50:28.128Z,1013.11
2018-02-18T00:51:28.114Z,1013.08
2018-02-18T00:52:28.104Z,1013.06
2018-02-18T00:53:28.106Z,1013.06
2018-02-18T00:54:28.086Z,1013.11
2018-02-18T00:55:28.078Z,1013.05
2018-02-18T00:56:28.062Z,1013.07
2018-02-18T00:57:28.062Z,1013.08
2018-02-18T00:58:28.045Z,1013.09
2018-02-18T00:59:28.029Z,1013.08
2018-02-18T01:00:28.028Z,1013.08
2018-02-18T01:01:28.016Z,1013.14
2018-02-18T01:02:28.002Z,1013.14
2018-02-18T01:03:28.026Z,1013.14
2018-02-18T01:04:27.986Z,1013.12
2018-02-18T01:05:27.970Z,1013.16
2018-02-18T01:06:27.971Z,1013.15
2018-02-18T01:07:27.947Z,1013.16
2018-02-18T01:08:27.938Z,1013.14
2018-02-18T01:09:27.926Z,1013.18
2018-02-18T01:10:27.915Z,1013.15
2018-02-18T01:11:27.914Z,1013.17
2018-02-18T01:12:27.896Z,1013.15
2018-02-18T01:13:27.909Z,1013.23
2018-02-18T01:14:27.878Z,1013.19
2018-02-18T01:15:27.868Z,1013.19
2018-02-18T01:16:27.853Z,1013.22
2018-02-18T01:17:27.855Z,1013.21
2018-02-18T01:18:27.860Z,1013.22
2018-02-18T01:19:27.849Z,1013.22
2018-02-18T01:20:27.816Z,1013.22
2018-02-18T01:21:27.801Z,1013.25
2018-02-18T01:22:27.796Z,1013.26
2018-02-18T01:23:27.787Z,1013.26
2018-02-18T01:24:27.782Z,1013.32
2018-02-18T01:25:27.758Z,1013.31
2018-02-18T01:26:27.768Z,1013.28
2018-02-18T01:27:27.769Z,1013.29
2018-02-18T01:28:27.765Z,1013.33
2018-02-18T01:29:27.726Z,1013.32
2018-02-18T01:30:27.730Z,1013.34
2018-02-18T01:31:27.696Z,1013.37
2018-02-18T01:32:27.694Z,1013.33
2018-02-18T01:33:27.709Z,1013.37
2018-02-18T01:34:27.674Z,1013.37
2018-02-18T01:35:27.668Z,1013.40
2018-02-18T01:36:27.645Z,1013.39
2018-02-18T01:37:27.634Z,1013.38
2018-02-18T01:38:27.637Z,1013.38
2018-02-18T01:39:27.644Z,1013.40
2018-02-18T01:40:27.608Z,1013.37
2018-02-18T01:41:27.606Z,1013.37
2018-02-18T01:42:27.603Z,1013.41
2018-02-18T01:43:27.592Z,1013.42
2018-02-18T01:44:27.570Z,1013.43
2018-02-18T01:45:27.588Z,1013.39
2018-02-18T01:46:27.624Z,1013.43
2018-02-18T01:47:27.542Z,1013.43
2018-02-18T01:48:27.516Z,1013.41
2018-02-18T01:49:27.515Z,1013.40
2018-02-18T01:50:27.535Z,1013.41
2018-02-18T01:51:27.493Z,1013.39
2018-02-18T01:52:27.476Z,1013.45
2018-02-18T01:53:27.474Z,1013.41
2018-02-18T01:54:27.489Z,1013.44
2018-02-18T01:55:27.454Z,1013.44
2018-02-18T01:56:27.432Z,1013.47
2018-02-18T01:57:27.443Z,1013.42
2018-02-18T01:58:27.421Z,1013.42
2018-02-18T01:59:27.429Z,1013.44
2018-02-18T02:00:27.411Z,1013.46
2018-02-18T02:01:27.393Z,1013.48
2018-02-18T02:02:27.371Z,1013.48
2018-02-18T02:03:27.361Z,1013.48
2018-02-18T02:04:27.383Z,1013.47
2018-02-18T02:05:27.345Z,1013.49
2018-02-18T02:06:27.333Z,1013.52
2018-02-18T02:07:27.320Z,1013.54
2018-02-18T02:08:27.313Z,1013.51
2018-02-18T02:09:27.295Z,1013.58
2018-02-18T02:10:27.305Z,1013.59
2018-02-18T02:11:27.277Z,1013.60
2018-02-18T02:12:27.261Z,1013.59
2018-02-18T02:13:27.289Z,1013.60
2018-02-18T02:14:27.244Z,1013.59
2018-02-18T02:15:27.260Z,1013.58
2018-02-18T02:16:27.245Z,1013.58
2018-02-18T02:17:27.215Z,1013.54
2018-02-18T02:18:27.199Z,1013.53
2018-02-18T02:19:27.191Z,1013.52
2018-02-18T02:20:27.197Z,1013.54
2018-02-18T02:21:27.171Z,1013.52
2018-02-18T02:22:27.159Z,1013.51
2018-02-18T02:23:27.156Z,1013.56
2018-02-18T02:24:27.168Z,1013.55
2018-02-18T02:25:27.122Z,1013.54
2018-02-18T02:26:27.115Z,1013.57
2018-02-18T02:27:27.107Z,1013.58
2018-02-18T02:28:27.112Z,1013.57
2018-02-18T02:29:27.090Z,1013.55
2018-02-18T02:30:27.113Z,1013.56
2018-02-18T02:31:27.101Z,1013.57
2018-02-18T02:32:27.052Z,1013.54
2018-02-18T02:33:27.037Z,1013.56
2018-02-18T02:34:27.030Z,1013.53
2018-02-18T02:35:27.034Z,1013.53
2018-02-18T02:36:27.014Z,1013.53
2018-02-18T02:37:26.999Z,1013.53
2018-02-18T02:38:27.003Z,1013.49
2018-02-18T02:39:26.982Z,1013.51
2018-02-18T02:40:26.967Z,1013.50
2018-02-18T02:41:26.985Z,1013.50
2018-02-18T02:42:26.976Z,1013.49
2018-02-18T02:43:26.929Z,1013.50
2018-02-18T02:44:26.927Z,1013.51
2018-02-18T02:45:26.937Z,1013.46
2018-02-18T02:46:26.916Z,1013.50
2018-02-18T02:47:26.944Z,1013.48
2018-02-18T02:48:26.892Z,1013.50
2018-02-18T02:49:26.866Z,1013.51
2018-02-18T02:50:26.871Z,1013.53
2018-02-18T02:51:26.868Z,1013.51
2018-02-18T02:52:26.846Z,1013.53
2018-02-18T02:53:26.838Z,1013.51
2018-02-18T02:54:26.826Z,1013.55
2018-02-18T02:55:26.809Z,1013.49
2018-02-18T02:56:26.788Z,1013.52
2018-02-18T02:57:26.799Z,1013.51
2018-02-18T02:58:26.793Z,1013.51
2018-02-18T02:59:26.752Z,1013.50
2018-02-18T03:00:26.749Z,1013.54
2018-02-18T03:01:26.810Z,1013.49
2018-02-18T03:02:26.727Z,1013.50
2018-02-18T03:03:26.729Z,1013.48
2018-02-18T03:04:26.712Z,1013.45
2018-02-18T03:05:26.726Z,1013.51
2018-02-18T03:24:47.913Z,1013.42
2018-02-18T03:25:47.855Z,1013.41
2018-02-18T03:26:47.851Z,1013.41
2018-02-18T03:27:47.816Z,1013.42
2018-02-18T03:28:47.814Z,1013.41
2018-02-18T03:29:47.787Z,1013.43
2018-02-18T03:30:47.763Z,1013.46
2018-02-18T03:31:47.741Z,1013.46
2018-02-18T03:32:47.732Z,1013.44
2018-02-18T03:33:47.717Z,1013.47
2018-02-18T03:34:48.467Z,1013.50
2018-02-18T03:35:47.717Z,1013.50
2018-02-18T03:36:47.734Z,1013.53
2018-02-18T03:37:47.676Z,1013.53
2018-02-18T03:38:47.660Z,1013.55
2018-02-18T03:39:47.656Z,1013.52
2018-02-18T03:40:47.648Z,1013.55
2018-02-18T03:41:47.615Z,1013.57
2018-02-18T03:42:47.625Z,1013.59
2018-02-18T03:43:47.601Z,1013.58
2018-02-18T03:44:47.578Z,1013.57
2018-02-18T03:45:47.605Z,1013.58
2018-02-18T03:46:47.585Z,1013.56
2018-02-18T03:47:47.564Z,1013.56
2018-02-18T03:48:47.532Z,1013.61
2018-02-18T03:49:47.533Z,1013.56
2018-02-18T03:50:47.507Z,1013.56
2018-02-18T03:51:47.492Z,1013.55
2018-02-18T03:52:47.488Z,1013.54
2018-02-18T03:53:47.467Z,1013.54
2018-02-18T03:54:47.456Z,1013.58
2018-02-18T03:55:47.447Z,1013.59
2018-02-18T03:56:47.462Z,1013.58
2018-02-18T03:57:47.449Z,1013.59
2018-02-18T03:58:47.423Z,1013.60
2018-02-18T03:59:47.401Z,1013.61
2018-02-18T04:00:47.402Z,1013.63
2018-02-18T04:01:47.380Z,1013.63
2018-02-18T04:02:47.372Z,1013.62
2018-02-18T04:03:47.390Z,1013.66
2018-02-18T04:04:47.389Z,1013.64
2018-02-18T04:05:47.337Z,1013.65
2018-02-18T04:06:47.320Z,1013.68
2018-02-18T04:07:47.328Z,1013.68
2018-02-18T04:08:47.297Z,1013.70
2018-02-18T04:09:47.287Z,1013.71
2018-02-18T04:10:47.278Z,1013.67
2018-02-18T04:11:47.263Z,1013.73
2018-02-18T04:12:47.256Z,1013.68
2018-02-18T04:13:47.252Z,1013.69
2018-02-18T04:14:47.226Z,1013.71
2018-02-18T04:15:47.238Z,1013.71
2018-02-18T04:16:47.206Z,1013.72
2018-02-18T04:17:47.214Z,1013.76
2018-02-18T04:18:47.205Z,1013.73
2018-02-18T04:19:47.170Z,1013.78
2018-02-18T04:20:47.175Z,1013.78
2018-02-18T04:21:47.151Z,1013.80
2018-02-18T04:22:47.141Z,1013.81
2018-02-18T04:23:47.125Z,1013.77
2018-02-18T04:24:47.156Z,1013.80
2018-02-18T04:25:47.149Z,1013.80
2018-02-18T04:26:47.100Z,1013.81
2018-02-18T04:27:47.074Z,1013.78
2018-02-18T04:28:47.064Z,1013.83
2018-02-18T04:29:47.088Z,1013.82
2018-02-18T04:30:47.051Z,1013.78
2018-02-18T04:31:47.033Z,1013.77
2018-02-18T04:32:47.021Z,1013.76
2018-02-18T04:33:47.008Z,1013.74
2018-02-18T04:34:47.006Z,1013.73
2018-02-18T04:35:46.989Z,1013.78
2018-02-18T04:36:46.973Z,1013.75
2018-02-18T04:37:46.988Z,1013.77
2018-02-18T04:38:46.963Z,1013.77
2018-02-18T04:39:46.936Z,1013.79
2018-02-18T04:40:46.943Z,1013.80
2018-02-18T04:41:46.939Z,1013.83
2018-02-18T04:42:46.906Z,1013.88
2018-02-18T04:43:46.895Z,1013.87
2018-02-18T04:44:46.895Z,1013.85
2018-02-18T04:45:46.881Z,1013.85
2018-02-18T04:46:46.865Z,1013.82
2018-02-18T04:47:46.851Z,1013.84
2018-02-18T04:48:46.838Z,1013.77
2018-02-18T04:49:46.839Z,1013.75
2018-02-18T04:50:46.813Z,1013.78
2018-02-18T04:51:46.846Z,1013.78
2018-02-18T04:52:46.795Z,1013.77
2018-02-18T04:53:46.807Z,1013.73
2018-02-18T04:54:46.778Z,1013.78
2018-02-18T04:55:46.775Z,1013.73
2018-02-18T04:56:46.752Z,1013.72
2018-02-18T04:57:46.755Z,1013.75
2018-02-18T04:58:46.791Z,1013.77
2018-02-18T04:59:46.706Z,1013.74
2018-02-18T05:00:46.730Z,1013.74
2018-02-18T05:01:46.688Z,1013.80
2018-02-18T05:02:46.689Z,1013.75
2018-02-18T05:03:46.662Z,1013.77
2018-02-18T05:04:46.642Z,1013.78
2018-02-18T05:05:46.636Z,1013.77
2018-02-18T05:06:46.619Z,1013.79
2018-02-18T05:07:46.634Z,1013.79
2018-02-18T05:08:46.623Z,1013.82
2018-02-18T05:09:46.616Z,1013.81
2018-02-18T05:10:46.587Z,1013.80
2018-02-18T05:11:46.572Z,1013.78
2018-02-18T05:12:46.554Z,1013.81
2018-02-18T05:13:46.539Z,1013.79
2018-02-18T05:14:46.538Z,1013.78
2018-02-18T05:15:46.564Z,1013.80
2018-02-18T05:16:46.506Z,1013.83
2018-02-18T05:17:46.491Z,1013.81
2018-02-18T05:18:46.477Z,1013.82
2018-02-18T05:19:46.467Z,1013.81
2018-02-18T05:20:46.452Z,1013.81
2018-02-18T05:21:46.472Z,1013.79
2018-02-18T05:22:46.429Z,1013.79
2018-02-18T05:23:46.446Z,1013.82
2018-02-18T05:24:46.416Z,1013.79
2018-02-18T05:25:46.390Z,1013.83
2018-02-18T05:26:46.379Z,1013.89
2018-02-18T05:27:46.365Z,1013.90
2018-02-18T05:28:46.351Z,1013.98
2018-02-18T05:29:46.367Z,1013.98
2018-02-18T05:30:46.368Z,1013.96
2018-02-18T05:31:46.316Z,1014.00
2018-02-18T05:32:46.359Z,1014.02
2018-02-18T05:33:46.308Z,1014.02
2018-02-18T05:34:46.285Z,1014.04
2018-02-18T05:35:46.309Z,1014.03
2018-02-18T05:36:46.285Z,1014.05
2018-02-18T05:37:46.251Z,1014.11
2018-02-18T05:38:46.232Z,1014.09
2018-02-18T05:39:46.217Z,1014.08
2018-02-18T05:40:46.221Z,1014.11
2018-02-18T05:41:46.210Z,1014.15
2018-02-18T05:42:46.185Z,1014.16
2018-02-18T05:43:46.196Z,1014.16
2018-02-18T05:44:46.162Z,1014.19
2018-02-18T05:45:46.158Z,1014.15
2018-02-18T05:46:46.146Z,1014.20
2018-02-18T05:49:07.171Z,1014.17
2018-02-18T05:50:07.175Z,1014.20
2018-02-18T05:51:07.105Z,1014.19
2018-02-18T05:52:07.174Z,1014.20
2018-02-18T05:53:07.109Z,1014.19
2018-02-18T05:54:07.127Z,1014.17
2018-02-18T05:55:15.729Z,1014.23
2018-02-18T05:57:00.476Z,1014.23
2018-02-18T05:58:00.441Z,1014.24
2018-02-18T05:59:00.416Z,1014.27
2018-02-18T06:00:00.390Z,1014.28
2018-02-18T06:01:00.403Z,1014.29
2018-02-18T06:02:00.383Z,1014.32
2018-02-18T06:03:00.350Z,1014.34
2018-02-18T06:04:00.335Z,1014.33
2018-02-18T06:05:00.343Z,1014.35
2018-02-18T06:06:00.313Z,1014.33
2018-02-18T06:07:00.312Z,1014.36
2018-02-18T06:08:00.287Z,1014.34
2018-02-18T06:09:00.284Z,1014.35
2018-02-18T06:10:00.273Z,1014.37
2018-02-18T06:11:00.263Z,1014.35
2018-02-18T06:12:00.244Z,1014.35
2018-02-18T06:13:00.240Z,1014.34
2018-02-18T06:14:00.218Z,1014.34
2018-02-18T06:15:00.231Z,1014.32
2018-02-18T06:16:00.202Z,1014.34
2018-02-18T06:17:00.291Z,1014.37
2018-02-18T06:18:00.178Z,1014.33
2018-02-18T06:19:00.156Z,1014.32
2018-02-18T06:20:00.150Z,1014.33
2018-02-18T06:21:00.133Z,1014.35
2018-02-18T06:22:00.125Z,1014.34
2018-02-18T06:23:00.114Z,1014.37
2018-02-18T06:24:00.161Z,1014.39
2018-02-18T06:25:00.085Z,1014.39
2018-02-18T06:26:00.075Z,1014.40
2018-02-18T06:27:00.061Z,1014.43
2018-02-18T06:28:00.049Z,1014.40
2018-02-18T06:29:00.062Z,1014.43
2018-02-18T06:30:00.025Z,1014.43
2018-02-18T06:31:00.017Z,1014.43
2018-02-18T06:32:00.003Z,1014.44
2018-02-18T06:33:00.017Z,1014.48
2018-02-18T06:33:59.981Z,1014.47
2018-02-18T06:34:59.961Z,1014.48
2018-02-18T06:35:59.953Z,1014.45
2018-02-18T06:36:59.939Z,1014.47
2018-02-18T06:37:59.926Z,1014.45
2018-02-18T06:38:59.927Z,1014.41
2018-02-18T06:39:59.906Z,1014.41
2018-02-18T06:40:59.895Z,1014.49
2018-02-18T06:41:59.927Z,1014.44
2018-02-18T06:42:59.863Z,1014.44
2018-02-18T06:43:59.898Z,1014.46
2018-02-18T06:44:59.837Z,1014.42
2018-02-18T06:45:59.827Z,1014.35
2018-02-18T06:46:59.847Z,1014.36
2018-02-18T06:47:59.806Z,1014.35
2018-02-18T06:48:59.796Z,1014.35
2018-02-18T06:49:59.785Z,1014.38
2018-02-18T06:50:59.769Z,1014.37
2018-02-18T06:51:59.759Z,1014.35
2018-02-18T06:52:59.740Z,1014.38
2018-02-18T06:53:59.740Z,1014.36
2018-02-18T06:54:59.730Z,1014.41
2018-02-18T06:55:59.735Z,1014.44
2018-02-18T06:56:59.699Z,1014.43
2018-02-18T06:57:59.683Z,1014.46
2018-02-18T06:58:59.704Z,1014.47
2018-02-18T06:59:59.690Z,1014.44
2018-02-18T07:00:59.656Z,1014.48
2018-02-18T07:02:08.335Z,1014.45
2018-02-18T07:03:53.083Z,1014.45
2018-02-18T07:04:53.015Z,1014.50
2018-02-18T07:05:52.984Z,1014.52
2018-02-18T07:06:52.959Z,1014.53
2018-02-18T07:07:52.948Z,1014.56
2018-02-18T07:08:52.966Z,1014.54
2018-02-18T07:09:52.944Z,1014.56
2018-02-18T07:10:52.916Z,1014.58
2018-02-18T07:11:52.905Z,1014.55
2018-02-18T07:12:52.917Z,1014.54
2018-02-18T07:13:52.884Z,1014.58
2018-02-18T07:14:52.888Z,1014.61
2018-02-18T07:15:52.985Z,1014.57
2018-02-18T07:16:52.851Z,1014.57
2018-02-18T07:17:52.846Z,1014.56
2018-02-18T07:18:52.811Z,1014.55
2018-02-18T07:19:52.803Z,1014.59
2018-02-18T07:20:52.809Z,1014.58
2018-02-18T07:21:52.787Z,1014.53
2018-02-18T07:22:52.791Z,1014.54
2018-02-18T07:23:52.750Z,1014.49
2018-02-18T07:24:52.737Z,1014.50
2018-02-18T07:25:52.725Z,1014.54
2018-02-18T07:26:52.712Z,1014.49
2018-02-18T07:27:52.706Z,1014.52
2018-02-18T07:28:52.691Z,1014.51
2018-02-18T07:29:52.689Z,1014.50
2018-02-18T07:30:52.673Z,1014.56
2018-02-18T07:31:52.655Z,1014.57
2018-02-18T07:32:52.653Z,1014.57
2018-02-18T07:33:52.650Z,1014.58
2018-02-18T07:34:52.608Z,1014.55
2018-02-18T07:35:52.609Z,1014.56
2018-02-18T07:36:52.616Z,1014.57
2018-02-18T07:37:52.614Z,1014.56
2018-02-18T07:38:52.573Z,1014.54
2018-02-18T07:39:52.545Z,1014.53
2018-02-18T07:40:52.574Z,1014.56
2018-02-18T07:41:52.521Z,1014.50
2018-02-18T07:42:52.504Z,1014.55
2018-02-18T07:43:52.512Z,1014.56
2018-02-18T07:44:52.515Z,1014.57
2018-02-18T07:45:52.481Z,1014.56
2018-02-18T07:46:52.462Z,1014.53
2018-02-18T07:47:52.451Z,1014.59
2018-02-18T07:48:52.442Z,1014.58
2018-02-18T07:49:52.454Z,1014.58
2018-02-18T07:50:52.424Z,1014.61
2018-02-18T07:51:52.395Z,1014.60
2018-02-18T07:52:52.402Z,1014.61
2018-02-18T07:53:52.422Z,1014.64
2018-02-18T07:54:52.358Z,1014.59
2018-02-18T07:55:52.362Z,1014.60
2018-02-18T07:56:52.336Z,1014.63
2018-02-18T07:57:52.323Z,1014.62
2018-02-18T07:58:52.309Z,1014.62
2018-02-18T07:59:52.312Z,1014.58
2018-02-18T08:00:52.290Z,1014.58
2018-02-18T08:01:52.292Z,1014.61
2018-02-18T08:02:52.263Z,1014.58
2018-02-18T08:03:52.280Z,1014.55
2018-02-18T08:04:52.240Z,1014.60
2018-02-18T08:05:52.256Z,1014.61
2018-02-18T08:06:52.228Z,1014.57
2018-02-18T08:07:52.206Z,1014.56
2018-02-18T08:08:52.195Z,1014.54
2018-02-18T08:09:52.196Z,1014.52
2018-02-18T08:10:52.164Z,1014.55
2018-02-18T08:11:52.165Z,1014.47
2018-02-18T08:12:52.162Z,1014.49
2018-02-18T08:13:52.130Z,1014.53
2018-02-18T08:14:52.137Z,1014.53
2018-02-18T08:15:52.115Z,1014.53
2018-02-18T08:16:52.094Z,1014.56
2018-02-18T08:17:52.141Z,1014.51
2018-02-18T08:18:52.073Z,1014.54
2018-02-18T08:19:52.063Z,1014.53
2018-02-18T08:20:52.090Z,1014.60
2018-02-18T08:21:52.063Z,1014.56
2018-02-18T08:22:52.055Z,1014.62
2018-02-18T08:23:52.038Z,1014.61
2018-02-18T08:24:52.003Z,1014.60
2018-02-18T08:25:51.988Z,1014.63
2018-02-18T08:26:51.993Z,1014.65
2018-02-18T08:27:51.973Z,1014.66
2018-02-18T08:28:51.961Z,1014.65
2018-02-18T08:29:51.943Z,1014.67
2018-02-18T08:30:51.937Z,1014.63
2018-02-18T08:31:51.925Z,1014.67
2018-02-18T08:32:51.936Z,1014.66
2018-02-18T08:33:51.897Z,1014.64
2018-02-18T08:34:51.884Z,1014.65
2018-02-18T08:35:51.871Z,1014.63
2018-02-18T08:36:51.862Z,1014.62
2018-02-18T08:37:51.891Z,1014.61
2018-02-18T08:38:51.835Z,1014.61
2018-02-18T08:39:51.863Z,1014.61
2018-02-18T08:40:51.858Z,1014.63
2018-02-18T08:41:51.805Z,1014.58
2018-02-18T08:42:51.816Z,1014.58
2018-02-18T08:43:51.823Z,1014.55
2018-02-18T08:44:51.774Z,1014.54
2018-02-18T08:45:51.763Z,1014.52
2018-02-18T08:46:51.749Z,1014.51
2018-02-18T08:47:51.735Z,1014.49
2018-02-18T08:48:51.728Z,1014.54
2018-02-18T08:49:51.716Z,1014.52
2018-02-18T08:50:51.758Z,1014.51
2018-02-18T08:51:51.692Z,1014.47
2018-02-18T08:52:51.722Z,1014.46
2018-02-18T08:53:51.701Z,1014.45
2018-02-18T08:54:51.702Z,1014.46
2018-02-18T08:55:51.663Z,1014.38
2018-02-18T08:56:51.657Z,1014.38
2018-02-18T08:57:51.638Z,1014.41
2018-02-18T08:58:51.664Z,1014.39
2018-02-18T08:59:51.653Z,1014.43
2018-02-18T09:00:51.631Z,1014.43
2018-02-18T09:01:51.591Z,1014.40
2018-02-18T09:02:51.597Z,1014.39
2018-02-18T09:03:51.577Z,1014.42
2018-02-18T09:04:51.568Z,1014.39
2018-02-18T09:05:51.544Z,1014.39
2018-02-18T09:06:51.539Z,1014.39
2018-02-18T09:07:51.523Z,1014.41
2018-02-18T09:08:51.531Z,1014.37
2018-02-18T09:09:51.503Z,1014.37
2018-02-18T09:10:51.496Z,1014.38
2018-02-18T09:11:51.490Z,1014.42
2018-02-18T09:12:51.479Z,1014.37
2018-02-18T09:13:51.463Z,1014.40
2018-02-18T09:14:51.454Z,1014.40
2018-02-18T09:15:51.479Z,1014.40
2018-02-18T09:16:51.430Z,1014.45
2018-02-18T09:17:51.453Z,1014.46
2018-02-18T09:18:51.439Z,1014.47
2018-02-18T09:19:51.402Z,1014.47
2018-02-18T09:20:51.392Z,1014.48
2018-02-18T09:21:51.406Z,1014.50
2018-02-18T09:22:51.367Z,1014.49
2018-02-18T09:23:51.365Z,1014.49
2018-02-18T09:24:51.385Z,1014.45
2018-02-18T09:25:51.379Z,1014.46
2018-02-18T09:26:51.333Z,1014.44
2018-02-18T09:27:51.341Z,1014.46
2018-02-18T09:28:51.304Z,1014.48
2018-02-18T09:29:51.301Z,1014.45
2018-02-18T09:30:51.283Z,1014.42
2018-02-18T09:31:51.282Z,1014.42
2018-02-18T09:32:51.301Z,1014.42
2018-02-18T09:33:51.277Z,1014.42
2018-02-18T09:34:51.243Z,1014.43
2018-02-18T09:35:51.263Z,1014.41
2018-02-18T09:36:51.233Z,1014.40
2018-02-18T09:37:51.217Z,1014.40
2018-02-18T09:38:51.201Z,1014.41
2018-02-18T09:39:51.191Z,1014.37
2018-02-18T09:40:51.178Z,1014.37
2018-02-18T09:41:51.175Z,1014.36
2018-02-18T09:42:51.165Z,1014.36
2018-02-18T09:43:51.152Z,1014.38
2018-02-18T09:44:51.145Z,1014.36
2018-02-18T09:45:51.142Z,1014.36
2018-02-18T09:46:51.116Z,1014.35
2018-02-18T09:47:51.119Z,1014.39
2018-02-18T09:48:51.104Z,1014.36
2018-02-18T09:49:51.087Z,1014.39
2018-02-18T09:50:51.073Z,1014.41
2018-02-18T09:51:51.064Z,1014.41
2018-02-18T09:52:51.057Z,1014.39
2018-02-18T09:53:51.064Z,1014.39
2018-02-18T09:54:51.038Z,1014.38
2018-02-18T09:55:51.028Z,1014.37
2018-02-18T09:56:51.014Z,1014.39
2018-02-18T09:57:51.062Z,1014.40
2018-02-18T09:58:50.996Z,1014.37
2018-02-18T09:59:59.726Z,1014.36
2018-02-18T10:01:44.428Z,1014.37
2018-02-18T10:02:44.366Z,1014.34
2018-02-18T10:03:44.381Z,1014.36
2018-02-18T10:04:44.346Z,1014.34
2018-02-18T10:05:44.356Z,1014.38
2018-02-18T10:06:44.394Z,1014.36
2018-02-18T10:07:44.324Z,1014.30
2018-02-18T10:08:44.303Z,1014.28
2018-02-18T10:09:44.293Z,1014.25
2018-02-18T10:10:44.286Z,1014.26
2018-02-18T10:11:44.267Z,1014.25
2018-02-18T10:12:44.259Z,1014.24
2018-02-18T10:13:44.251Z,1014.25
2018-02-18T10:14:44.241Z,1014.28
2018-02-18T10:15:44.233Z,1014.28
2018-02-18T10:16:44.226Z,1014.30
2018-02-18T10:17:44.232Z,1014.32
2018-02-18T10:18:44.201Z,1014.32
2018-02-18T10:19:44.208Z,1014.32
2018-02-18T10:20:44.179Z,1014.34
2018-02-18T10:21:44.188Z,1014.35
2018-02-18T10:22:44.159Z,1014.30
2018-02-18T10:23:44.155Z,1014.33
2018-02-18T10:24:44.137Z,1014.31
2018-02-18T10:25:44.128Z,1014.32
2018-02-18T10:26:44.122Z,1014.30
2018-02-18T10:27:44.113Z,1014.27
2018-02-18T10:28:44.101Z,1014.32
2018-02-18T10:29:44.104Z,1014.35
2018-02-18T10:30:44.078Z,1014.37
2018-02-18T10:31:44.081Z,1014.38
2018-02-18T10:32:44.056Z,1014.42
2018-02-18T10:33:44.054Z,1014.45
2018-02-18T10:34:44.045Z,1014.42
2018-02-18T10:35:44.025Z,1014.39
2018-02-18T10:36:44.022Z,1014.38
2018-02-18T10:37:44.009Z,1014.39
2018-02-18T10:38:43.995Z,1014.42
2018-02-18T10:39:44.003Z,1014.41
2018-02-18T10:40:43.978Z,1014.36
2018-02-18T10:41:43.966Z,1014.34
2018-02-18T10:42:43.961Z,1014.32
2018-02-18T10:43:43.964Z,1014.30
2018-02-18T10:44:43.936Z,1014.30
2018-02-18T10:45:43.923Z,1014.32
2018-02-18T10:46:43.928Z,1014.30
2018-02-18T10:47:43.912Z,1014.34
2018-02-18T10:48:43.902Z,1014.33
2018-02-18T10:49:43.898Z,1014.38
2018-02-18T10:50:43.886Z,1014.37
2018-02-18T10:51:43.901Z,1014.42
2018-02-18T10:52:43.859Z,1014.40
2018-02-18T10:53:43.855Z,1014.40
2018-02-18T10:54:43.837Z,1014.40
2018-02-18T10:55:43.839Z,1014.38
2018-02-18T10:56:43.855Z,1014.37
2018-02-18T10:57:43.816Z,1014.34
2018-02-18T10:58:43.811Z,1014.30
2018-02-18T10:59:43.789Z,1014.26
2018-02-18T11:00:43.777Z,1014.28
2018-02-18T11:01:43.775Z,1014.29
2018-02-18T11:02:43.759Z,1014.25
2018-02-18T11:03:43.754Z,1014.21
2018-02-18T11:04:43.764Z,1014.23
2018-02-18T11:05:43.733Z,1014.24
2018-02-18T11:06:43.752Z,1014.24
2018-02-18T11:07:43.715Z,1014.21
2018-02-18T11:08:43.713Z,1014.25
2018-02-18T11:09:43.717Z,1014.25
2018-02-18T11:10:43.689Z,1014.27
2018-02-18T11:11:43.687Z,1014.28
2018-02-18T11:12:43.665Z,1014.26
2018-02-18T11:13:43.653Z,1014.27
2018-02-18T11:14:43.651Z,1014.31
2018-02-18T11:15:43.769Z,1014.34
2018-02-18T11:16:43.624Z,1014.30
2018-02-18T11:17:43.632Z,1014.30
2018-02-18T11:18:43.605Z,1014.34
2018-02-18T11:19:43.698Z,1014.33
2018-02-18T11:20:43.620Z,1014.28
2018-02-18T11:21:43.596Z,1014.35
2018-02-18T11:22:43.628Z,1014.33
2018-02-18T11:23:43.561Z,1014.33
2018-02-18T11:24:43.568Z,1014.27
2018-02-18T11:25:43.547Z,1014.31
2018-02-18T11:26:43.542Z,1014.28
2018-02-18T11:27:43.600Z,1014.24
2018-02-18T11:28:43.523Z,1014.18
2018-02-18T11:29:43.544Z,1014.19
2018-02-18T11:30:43.534Z,1014.15
2018-02-18T11:31:43.501Z,1014.17
2018-02-18T11:32:43.477Z,1014.12
2018-02-18T11:33:43.477Z,1014.12
2018-02-18T11:34:43.482Z,1014.11
2018-02-18T11:35:43.448Z,1014.12
2018-02-18T11:36:43.449Z,1014.13
2018-02-18T11:37:43.446Z,1014.15
2018-02-18T11:38:43.424Z,1014.10
2018-02-18T11:39:43.481Z,1014.12
2018-02-18T11:40:43.411Z,1014.09
2018-02-18T11:41:43.435Z,1014.06
2018-02-18T11:42:43.379Z,1014.00
2018-02-18T11:43:43.380Z,1013.97
2018-02-18T11:44:43.376Z,1013.97
2018-02-18T11:45:43.371Z,1013.98
2018-02-18T11:46:43.360Z,1013.94
2018-02-18T11:47:43.356Z,1013.96
2018-02-18T11:48:43.362Z,1013.94
2018-02-18T11:49:43.312Z,1013.97
2018-02-18T11:50:43.337Z,1013.97
2018-02-18T11:51:43.298Z,1013.96
2018-02-18T11:52:51.995Z,1013.92
2018-02-18T11:54:36.942Z,1013.90
2018-02-18T11:55:36.729Z,1013.89
2018-02-18T11:56:36.716Z,1013.87
2018-02-18T11:57:36.686Z,1013.87
2018-02-18T11:58:36.668Z,1013.88
2018-02-18T11:59:36.655Z,1013.89
2018-02-18T12:00:36.627Z,1013.87
2018-02-18T12:01:36.614Z,1013.83
2018-02-18T12:02:36.623Z,1013.88
2018-02-18T12:03:36.591Z,1013.88
2018-02-18T12:04:36.637Z,1013.86
2018-02-18T12:05:36.590Z,1013.84
2018-02-18T12:06:36.565Z,1013.88
2018-02-18T12:07:36.574Z,1013.85
2018-02-18T12:08:36.563Z,1013.87
2018-02-18T12:09:36.601Z,1013.85
2018-02-18T12:10:36.588Z,1013.84
2018-02-18T12:11:36.518Z,1013.84
2018-02-18T12:12:36.560Z,1013.90
2018-02-18T12:13:36.517Z,1013.84
2018-02-18T12:14:36.520Z,1013.85
2018-02-18T12:15:36.479Z,1013.79
2018-02-18T12:16:36.466Z,1013.78
2018-02-18T12:17:36.494Z,1013.77
2018-02-18T12:18:36.439Z,1013.74
2018-02-18T12:19:36.463Z,1013.74
2018-02-18T12:20:36.470Z,1013.73
2018-02-18T12:21:36.422Z,1013.77
2018-02-18T12:22:36.438Z,1013.72
2018-02-18T12:23:36.453Z,1013.70
2018-02-18T12:24:45.123Z,1013.73
2018-02-18T12:26:29.861Z,1013.71
2018-02-18T12:27:29.805Z,1013.68
2018-02-18T12:28:29.825Z,1013.68
2018-02-18T12:29:29.762Z,1013.59